createdAt,value
2022-11-30T00:02:58.464Z,101897.16
2022-11-30T00:08:13.947Z,101890.06
2022-11-30T00:13:29.306Z,101892.09
2022-11-30T00:18:44.968Z,101897.66
2022-11-30T00:23:59.948Z,101882.97
2022-11-30T00:29:15.217Z,101894.88
2022-11-30T00:34:30.962Z,101894.88
2022-11-30T00:39:45.967Z,101896.13
2022-11-30T00:45:01.024Z,101892.59
2022-11-30T00:50:15.720Z,101896.13
2022-11-30T00:55:31.315Z,101891.81
2022-11-30T01:00:46.964Z,101891.00
2022-11-30T01:06:02.282Z,101900.16
2022-11-30T01:11:18.162Z,101896.13
2022-11-30T01:16:33.719Z,101899.94
2022-11-30T01:21:48.955Z,101902.00
2022-11-30T01:27:03.942Z,101914.66
2022-11-30T01:32:19.301Z,101909.59
2022-11-30T01:37:35.283Z,101906.81
2022-11-30T01:42:50.986Z,101904.03
2022-11-30T01:48:06.323Z,101898.47
2022-11-30T01:53:22.323Z,101899.22
2022-11-30T01:58:37.939Z,101899.22
2022-11-30T02:03:52.980Z,101905.56
2022-11-30T02:09:08.314Z,101907.81
2022-11-30T02:14:23.912Z,101910.59
2022-11-30T02:19:39.009Z,101913.91
2022-11-30T02:24:53.971Z,101926.00
2022-11-30T02:30:08.952Z,101922.19
2022-11-30T02:35:24.233Z,101920.16
2022-11-30T02:40:41.946Z,101924.97
2022-11-30T02:45:57.011Z,101918.16
2022-11-30T02:51:11.996Z,101917.38
2022-11-30T02:56:27.246Z,101929.00
2022-11-30T03:01:43.340Z,101929.53
2022-11-30T03:06:59.320Z,101934.31
2022-11-30T03:12:15.027Z,101935.56
2022-11-30T03:17:31.282Z,101930.50
2022-11-30T03:22:46.699Z,101938.84
2022-11-30T03:28:01.775Z,101933.28
2022-11-30T03:33:17.261Z,101936.53
2022-11-30T03:38:32.967Z,101946.13
2022-11-30T03:43:47.949Z,101946.91
2022-11-30T03:49:02.994Z,101944.59
2022-11-30T03:54:18.283Z,101935.53
2022-11-30T03:59:33.978Z,101945.88
2022-11-30T04:04:49.445Z,101947.13
2022-11-30T04:10:08.457Z,101948.66
2022-11-30T04:15:24.015Z,101948.66
2022-11-30T04:20:40.711Z,101952.22
2022-11-30T04:25:56.002Z,101950.16
2022-11-30T04:31:11.285Z,101948.91
2022-11-30T04:36:26.922Z,101942.91
2022-11-30T04:41:42.293Z,101940.66
2022-11-30T04:46:58.064Z,101940.13
2022-11-30T04:52:13.299Z,101944.44
2022-11-30T04:57:28.915Z,101945.69
2022-11-30T05:02:49.009Z,101955.31
2022-11-30T05:08:07.947Z,101949.47
2022-11-30T05:13:22.749Z,101945.94
2022-11-30T05:18:38.326Z,101949.19
2022-11-30T05:23:54.248Z,101953.72
2022-11-30T05:29:09.957Z,101950.94
2022-11-30T05:34:25.259Z,101963.84
2022-11-30T05:39:41.247Z,101954.72
2022-11-30T05:44:56.961Z,101950.38
2022-11-30T05:50:12.065Z,101952.16
2022-11-30T05:55:26.768Z,101963.75
2022-11-30T06:00:41.939Z,101971.06
2022-11-30T06:05:56.991Z,101973.56
2022-11-30T06:11:12.376Z,101979.13
2022-11-30T06:16:27.786Z,101983.66
2022-11-30T06:21:42.959Z,101985.19
2022-11-30T06:26:58.065Z,101988.47
2022-11-30T06:32:12.959Z,101997.28
2022-11-30T06:37:28.027Z,101997.78
2022-11-30T06:42:42.990Z,101999.03
2022-11-30T06:47:58.024Z,102003.81
2022-11-30T06:53:13.049Z,102008.63
2022-11-30T06:58:28.000Z,102005.56
2022-11-30T07:03:43.069Z,102011.13
2022-11-30T07:08:58.283Z,102015.16
2022-11-30T07:14:14.042Z,102012.09
2022-11-30T07:19:28.949Z,102024.75
2022-11-30T07:24:44.063Z,102024.47
2022-11-30T07:29:59.023Z,102029.28
2022-11-30T07:35:13.966Z,102036.09
2022-11-30T07:40:28.989Z,102046.47
2022-11-30T07:45:43.756Z,102054.81
2022-11-30T07:50:59.320Z,102072.75
2022-11-30T07:56:15.168Z,102075.97
2022-11-30T08:01:31.144Z,102081.53
2022-11-30T08:06:45.977Z,102075.97
2022-11-30T08:12:01.327Z,102081.53
2022-11-30T08:17:17.088Z,102083.56
2022-11-30T08:22:31.987Z,102093.16
2022-11-30T08:27:47.011Z,102084.81
2022-11-30T08:33:02.040Z,102091.13
2022-11-30T08:38:17.004Z,102095.19
2022-11-30T08:43:31.977Z,102100.75
2022-11-30T08:48:47.047Z,102110.34
2022-11-30T08:54:02.050Z,102108.78
2022-11-30T08:59:17.260Z,102118.09
2022-11-30T09:04:33.025Z,102126.16
2022-11-30T09:09:48.055Z,102125.13
2022-11-30T09:15:03.319Z,102128.38
2022-11-30T09:20:19.014Z,102131.16
2022-11-30T09:25:33.976Z,102140.28
2022-11-30T09:30:49.413Z,102138.25
2022-11-30T09:36:05.013Z,102143.81
2022-11-30T09:41:20.019Z,102143.81
2022-11-30T09:46:35.092Z,102138.25
2022-11-30T09:51:50.002Z,102143.34
2022-11-30T09:57:04.988Z,102135.00
2022-11-30T10:02:20.115Z,102131.44
2022-11-30T10:07:35.053Z,102134.22
2022-11-30T10:12:50.315Z,102130.44
2022-11-30T10:18:06.040Z,102128.84
2022-11-30T10:23:21.026Z,102123.78
2022-11-30T10:28:47.125Z,102118.72
2022-11-30T10:34:04.319Z,102121.22
2022-11-30T10:39:20.025Z,102118.44
2022-11-30T10:44:35.021Z,102115.84
2022-11-30T10:49:50.006Z,102111.53
2022-11-30T10:55:05.434Z,102112.78
2022-11-30T11:00:20.973Z,102125.94
2022-11-30T11:05:36.339Z,102120.38
2022-11-30T11:10:51.748Z,102106.16
2022-11-30T11:16:07.042Z,102104.84
2022-11-30T11:21:22.022Z,102107.03
2022-11-30T11:26:36.996Z,102102.47
2022-11-30T11:31:51.736Z,102098.44
2022-11-30T11:37:06.747Z,102106.28
2022-11-30T11:42:22.675Z,102103.50
2022-11-30T11:47:39.024Z,102096.38
2022-11-30T11:52:54.016Z,102087.44
2022-11-30T11:58:09.118Z,102102.97
2022-11-30T12:03:23.980Z,102095.94
2022-11-30T12:08:39.351Z,102097.25
2022-11-30T12:13:55.032Z,102099.84
2022-11-30T12:19:10.284Z,102097.34
2022-11-30T12:24:26.035Z,102099.91
2022-11-30T12:29:41.027Z,102103.59
2022-11-30T12:34:56.307Z,102102.47
2022-11-30T12:40:12.122Z,102107.44
2022-11-30T12:45:26.957Z,102110.16
2022-11-30T12:50:41.997Z,102112.59
2022-11-30T12:55:56.997Z,102122.84
2022-11-30T13:01:12.093Z,102113.47
2022-11-30T13:06:27.011Z,102111.94
2022-11-30T13:11:41.979Z,102122.03
2022-11-30T13:16:57.006Z,102135.34
2022-11-30T13:22:12.020Z,102118.66
2022-11-30T13:27:27.032Z,102131.03
2022-11-30T13:32:58.027Z,102129.16
2022-11-30T13:38:35.817Z,102127.38
2022-11-30T13:43:49.127Z,102129.38
2022-11-30T13:49:04.037Z,102134.66
2022-11-30T13:54:27.844Z,102130.34
2022-11-30T13:59:44.115Z,102131.13
2022-11-30T14:04:59.306Z,102135.44
2022-11-30T14:10:15.315Z,102138.22
2022-11-30T14:15:31.045Z,102142.25
2022-11-30T14:20:46.020Z,102142.25
2022-11-30T14:26:01.705Z,102137.44
2022-11-30T14:31:19.075Z,102150.09
2022-11-30T14:36:34.075Z,102154.88
2022-11-30T14:41:48.760Z,102167.50
2022-11-30T14:47:03.863Z,102179.91
2022-11-30T14:52:19.002Z,102177.59
2022-11-30T14:57:34.080Z,102173.75
2022-11-30T15:02:49.004Z,102175.47
2022-11-30T15:08:04.079Z,102171.63
2022-11-30T15:13:19.262Z,102175.97
2022-11-30T15:18:35.035Z,102166.06
2022-11-30T15:23:51.543Z,102166.28
2022-11-30T15:29:07.067Z,102173.06
2022-11-30T15:34:21.812Z,102177.41
2022-11-30T15:39:37.040Z,102167.53
2022-11-30T15:44:52.361Z,102173.06
2022-11-30T15:50:08.162Z,102171.53
2022-11-30T15:55:23.052Z,102170.03
2022-11-30T16:00:38.022Z,102174.03
2022-11-30T16:05:53.053Z,102178.81
2022-11-30T16:11:08.360Z,102177.28
2022-11-30T16:16:24.179Z,102180.81
2022-11-30T16:21:39.020Z,102191.16
2022-11-30T16:26:54.360Z,102186.84
2022-11-30T16:32:10.027Z,102186.75
2022-11-30T16:37:25.390Z,102196.16
2022-11-30T16:42:41.000Z,102200.91
2022-11-30T16:47:55.862Z,102191.81
2022-11-30T16:53:11.020Z,102205.25
2022-11-30T16:58:25.777Z,102210.81
2022-11-30T17:03:41.067Z,102214.03
2022-11-30T17:08:56.048Z,102225.91
2022-11-30T17:14:11.041Z,102234.75
2022-11-30T17:19:26.033Z,102241.81
2022-11-30T17:24:41.027Z,102241.06
2022-11-30T17:29:56.502Z,102244.59
2022-11-30T17:35:12.064Z,102248.13
2022-11-30T17:40:27.304Z,102256.03
2022-11-30T17:45:43.454Z,102254.03
2022-11-30T17:50:59.071Z,102253.25
2022-11-30T17:56:13.834Z,102256.81
2022-11-30T18:01:29.141Z,102252.50
2022-11-30T18:06:44.375Z,102242.91
2022-11-30T18:12:00.014Z,102248.13
2022-11-30T18:17:15.082Z,102262.84
2022-11-30T18:22:30.099Z,102269.16
2022-11-30T18:27:45.118Z,102269.94
2022-11-30T18:33:00.148Z,102276.72
2022-11-30T18:38:16.046Z,102275.16
2022-11-30T18:43:31.310Z,102283.50
2022-11-30T18:48:47.028Z,102284.75
2022-11-30T18:54:02.047Z,102295.09
2022-11-30T18:59:17.099Z,102295.09
2022-11-30T19:04:32.115Z,102299.59
2022-11-30T19:09:47.012Z,102301.59
2022-11-30T19:15:02.026Z,102301.59
2022-11-30T19:20:17.068Z,102302.34
2022-11-30T19:25:32.028Z,102304.38
2022-11-30T19:30:46.810Z,102296.53
2022-11-30T19:36:02.085Z,102304.06
2022-11-30T19:41:17.086Z,102314.41
2022-11-30T19:46:32.291Z,102306.06
2022-11-30T19:51:48.036Z,102311.63
2022-11-30T19:57:03.038Z,102307.31
2022-11-30T20:02:18.128Z,102311.63
2022-11-30T20:07:32.860Z,102313.63
2022-11-30T20:12:48.029Z,102312.09
2022-11-30T20:18:03.105Z,102326.00
2022-11-30T20:23:18.070Z,102320.94
2022-11-30T20:28:32.910Z,102324.47
2022-11-30T20:33:48.423Z,102324.94
2022-11-30T20:39:04.092Z,102336.06
2022-11-30T20:44:19.417Z,102343.56
2022-11-30T20:49:35.379Z,102338.41
2022-11-30T20:54:51.432Z,102337.00
2022-11-30T21:00:12.718Z,102342.97
2022-11-30T21:05:28.003Z,102336.28
2022-11-30T21:10:43.018Z,102341.94
2022-11-30T21:15:58.206Z,102344.81
2022-11-30T21:21:13.036Z,102347.91
2022-11-30T21:26:28.105Z,102342.91
2022-11-30T21:31:43.045Z,102343.50
2022-11-30T21:36:58.051Z,102348.59
2022-11-30T21:42:13.119Z,102348.88
2022-11-30T21:47:28.083Z,102345.16
2022-11-30T21:52:43.014Z,102351.50
2022-11-30T21:57:58.064Z,102356.56
2022-11-30T22:03:18.125Z,102369.97
2022-11-30T22:08:35.081Z,102358.09
2022-11-30T22:13:49.798Z,102358.09
2022-11-30T22:19:05.059Z,102356.84
2022-11-30T22:24:20.364Z,102363.47
2022-11-30T22:29:36.052Z,102357.44
2022-11-30T22:34:51.459Z,102358.97
2022-11-30T22:40:07.095Z,102370.56
2022-11-30T22:45:22.071Z,102362.69
2022-11-30T22:50:37.269Z,102374.13
2022-11-30T22:55:53.132Z,102360.22
2022-11-30T23:01:08.026Z,102367.31
2022-11-30T23:06:23.061Z,102371.59
2022-11-30T23:11:38.078Z,102371.13
2022-11-30T23:16:52.855Z,102371.94
2022-11-30T23:22:08.030Z,102369.94
2022-11-30T23:27:23.062Z,102369.94
2022-11-30T23:32:38.028Z,102367.91
2022-11-30T23:37:53.399Z,102376.69
2022-11-30T23:43:09.011Z,102380.72
2022-11-30T23:48:24.046Z,102379.19
2022-11-30T23:53:39.947Z,102370.09
2022-11-30T23:58:56.040Z,102371.59
